Time;durP1;ratioP1;P1;durP2;ratioP2;P2;SDS_P1;SDS_P2;PMS_P1;PMS_P2;Temp;Humidity;BMP_temperature;BMP_pressure;BME280_temperature;BME280_humidity;BME280_pressure;Samples;Min_cycle;Max_cycle;Signal;HPM_P1;HPM_P2
2024/04/08 00:00:24;;;;;;;0.50;0.50;;;;;;;17.51;49.10;96349.34;29395;202;63005;-87
2024/04/08 00:00:55;;;;;;;0.40;0.40;;;;;;;17.51;48.78;96352.09;29395;203;63009;-88
2024/04/08 00:01:28;;;;;;;0.40;0.40;;;;;;;17.51;48.92;96357.56;29395;234;63004;-89
2024/04/08 00:01:59;;;;;;;0.40;0.40;;;;;;;17.50;48.81;96355.97;29394;197;64013;-89
2024/04/08 00:02:31;;;;;;;0.40;0.40;;;;;;;17.39;48.93;96341.16;29395;196;63004;-89
2024/04/08 00:03:03;;;;;;;0.40;0.40;;;;;;;17.49;48.99;96353.59;29395;226;63009;-89
2024/04/08 00:03:34;;;;;;;0.40;0.40;;;;;;;17.47;49.05;96351.19;29395;211;63004;-89
2024/04/08 00:04:05;;;;;;;0.40;0.40;;;;;;;17.48;48.79;96346.50;29395;236;63008;-88
2024/04/08 00:04:37;;;;;;;0.40;0.40;;;;;;;17.46;48.67;96344.09;29395;254;63004;-89
2024/04/08 00:05:08;;;;;;;0.50;0.50;;;;;;;17.48;48.82;96343.75;29395;199;63009;-90
2024/04/08 00:05:39;;;;;;;0.40;0.40;;;;;;;17.48;48.95;96341.00;29395;249;63008;-89
2024/04/08 00:06:12;;;;;;;0.45;0.45;;;;;;;17.49;48.86;96343.41;29395;235;63009;-89
2024/04/08 00:06:43;;;;;;;0.40;0.40;;;;;;;17.53;48.46;96343.50;29395;286;63005;-91
2024/04/08 00:07:14;;;;;;;0.40;0.40;;;;;;;17.53;47.90;96332.53;29394;254;64013;-89
2024/04/08 00:07:46;;;;;;;0.40;0.40;;;;;;;17.44;47.81;96329.94;29395;229;63005;-91
2024/04/08 00:08:18;;;;;;;0.40;0.40;;;;;;;17.53;47.88;96346.25;29395;210;63009;-91
2024/04/08 00:08:49;;;;;;;0.40;0.40;;;;;;;17.53;47.96;96338.03;29394;206;64008;-91
2024/04/08 00:09:20;;;;;;;0.40;0.40;;;;;;;17.54;47.78;96339.62;29395;281;63009;-89
2024/04/08 00:09:51;;;;;;;0.40;0.40;;;;;;;17.55;47.80;96338.47;29395;244;63004;-90
2024/04/08 00:10:23;;;;;;;0.40;0.40;;;;;;;17.55;47.63;96341.22;29395;196;63009;-89
2024/04/08 00:10:54;;;;;;;0.40;0.40;;;;;;;17.56;47.62;96342.81;29394;226;64008;-90
2024/04/08 00:11:25;;;;;;;0.40;0.40;;;;;;;17.57;47.47;96347.16;29395;215;63008;-90
2024/04/08 00:11:56;;;;;;;0.40;0.40;;;;;;;17.54;48.34;96339.62;29395;233;63004;-89
2024/04/08 00:12:28;;;;;;;0.50;0.50;;;;;;;17.52;48.24;96342.72;29395;202;63009;-90
2024/04/08 00:12:59;;;;;;;0.50;0.50;;;;;;;17.51;48.03;96345.81;29394;199;64005;-89
2024/04/08 00:13:31;;;;;;;0.50;0.50;;;;;;;17.50;47.92;96346.94;29395;214;63009;-89
2024/04/08 00:14:02;;;;;;;0.40;0.40;;;;;;;17.50;48.21;96335.97;29395;214;63005;-90
2024/04/08 00:14:34;;;;;;;0.50;0.50;;;;;;;17.50;48.04;96338.72;29395;211;63009;-89
2024/04/08 00:15:11;;;;;;;0.40;0.40;;;;;;;17.50;48.10;96344.22;29395;310;63007;-90
2024/04/08 00:15:43;;;;;;;0.50;0.50;;;;;;;17.50;48.03;96338.72;29394;220;64013;-90
2024/04/08 00:16:14;;;;;;;0.40;0.40;;;;;;;17.51;48.10;96334.84;29395;256;63004;-87
2024/04/08 00:16:45;;;;;;;0.50;0.50;;;;;;;17.51;47.89;96338.38;29395;222;63018;-89
2024/04/08 00:17:16;;;;;;;0.40;0.40;;;;;;;17.52;48.12;96336.44;29395;222;63004;-90
2024/04/08 00:17:48;;;;;;;0.50;0.50;;;;;;;17.52;47.79;96333.69;29395;215;63009;-90
2024/04/08 00:18:19;;;;;;;0.40;0.40;;;;;;;17.52;47.79;96341.91;29394;207;64008;-89
2024/04/08 00:18:52;;;;;;;0.40;0.40;;;;;;;17.51;47.71;96338.38;29395;199;63008;-89
2024/04/08 00:19:23;;;;;;;0.40;0.40;;;;;;;17.51;47.98;96335.63;29395;227;63005;-89
2024/04/08 00:19:55;;;;;;;0.50;0.50;;;;;;;17.51;47.74;96334.84;29395;202;63009;-91
2024/04/08 00:20:27;;;;;;;0.40;0.40;;;;;;;17.51;47.84;96332.09;29395;247;63005;-89
2024/04/08 00:21:02;;;;;;;0.40;0.40;;;;;;;17.43;47.81;96322.88;29395;246;63009;-89
2024/04/08 00:21:33;;;;;;;0.40;0.40;;;;;;;17.52;47.69;96333.69;29395;207;63005;-91
2024/04/08 00:22:05;;;;;;;0.40;0.40;;;;;;;17.52;47.57;96325.47;29395;226;63009;-90
2024/04/08 00:22:39;;;;;;;0.40;0.40;;;;;;;17.51;47.73;96324.66;29394;274;64009;-91
2024/04/08 00:23:11;;;;;;;0.40;0.40;;;;;;;17.52;47.61;96329.00;29395;219;63009;-90
2024/04/08 00:23:45;;;;;;;0.40;0.40;;;;;;;17.51;47.69;96334.84;29395;225;63004;-89
2024/04/08 00:24:19;;;;;;;0.50;0.50;;;;;;;17.50;47.85;96333.25;29395;243;63009;-91
2024/04/08 00:24:56;;;;;;;0.40;0.40;;;;;;;17.49;47.79;96329.69;29395;263;63004;-88
2024/04/08 00:25:28;;;;;;;0.50;0.50;;;;;;;17.40;47.86;96327.09;29395;208;63025;-89
2024/04/08 00:26:04;;;;;;;0.40;0.40;;;;;;;17.48;47.99;96335.53;29395;289;63004;-89
2024/04/08 00:26:35;;;;;;;0.40;0.40;;;;;;;17.48;47.79;96336.31;29395;261;63009;-90
2024/04/08 00:27:07;;;;;;;0.40;0.40;;;;;;;17.47;48.05;96333.94;29395;235;63005;-88
2024/04/08 00:27:38;;;;;;;0.40;0.40;;;;;;;17.46;47.87;96340.56;29394;242;64014;-89
2024/04/08 00:28:09;;;;;;;0.40;0.40;;;;;;;17.36;48.04;96328.16;29395;221;63005;-90
2024/04/08 00:28:41;;;;;;;0.40;0.40;;;;;;;17.33;47.99;96328.84;29395;197;63009;-87
2024/04/08 00:29:12;;;;;;;0.40;0.40;;;;;;;17.43;48.25;96336.56;29395;203;63005;-88
2024/04/08 00:29:44;;;;;;;0.40;0.40;;;;;;;17.43;48.18;96334.63;29395;202;63009;-89
2024/04/08 00:30:15;;;;;;;0.40;0.40;;;;;;;17.42;48.53;96335.78;29395;322;63005;-88
2024/04/08 00:30:46;;;;;;;0.40;0.40;;;;;;;17.41;48.32;96323.22;29395;245;63009;-90
2024/04/08 00:31:19;;;;;;;0.40;0.40;;;;;;;17.39;48.26;96333.72;29394;236;64016;-87
2024/04/08 00:31:50;;;;;;;0.40;0.40;;;;;;;17.39;48.53;96333.72;29395;222;63009;-88
2024/04/08 00:32:21;;;;;;;0.40;0.40;;;;;;;17.39;48.34;96322.75;29395;208;63004;-88
2024/04/08 00:32:53;;;;;;;0.40;0.40;;;;;;;17.39;48.04;96333.72;29395;233;63009;-89
2024/04/08 00:33:24;;;;;;;0.40;0.40;;;;;;;17.35;47.48;96313.63;29395;228;63004;-89
2024/04/08 00:33:55;;;;;;;0.40;0.40;;;;;;;17.36;47.52;96317.97;29394;209;64008;-88
2024/04/08 00:34:26;;;;;;;0.40;0.40;;;;;;;17.36;47.74;96317.97;29395;235;63005;-89
2024/04/08 00:34:57;;;;;;;0.40;0.40;;;;;;;17.37;47.68;96321.53;29395;203;63009;-89
2024/04/08 00:35:29;;;;;;;0.40;0.40;;;;;;;17.37;47.94;96318.78;29395;204;63005;-89
2024/04/08 00:36:01;;;;;;;0.40;0.40;;;;;;;17.36;47.74;96326.22;29395;289;63009;-88
2024/04/08 00:36:32;;;;;;;0.40;0.40;;;;;;;17.36;48.24;96323.47;29394;292;64009;-89
2024/04/08 00:37:05;;;;;;;0.40;0.40;;;;;;;17.35;48.12;96316.38;29395;228;63021;-88
2024/04/08 00:37:37;;;;;;;0.40;0.40;;;;;;;17.35;48.24;96319.13;29395;217;63005;-89
2024/04/08 00:38:08;;;;;;;0.40;0.40;;;;;;;17.36;48.27;96312.50;29395;207;63015;-89
2024/04/08 00:38:40;;;;;;;0.40;0.40;;;;;;;17.35;48.17;96310.91;29395;231;63004;-90
2024/04/08 00:39:11;;;;;;;0.45;0.45;;;;;;;17.36;47.93;96317.19;29395;202;63009;-89
2024/04/08 00:39:43;;;;;;;0.43;0.43;;;;;;;17.35;48.01;96305.41;29395;202;63004;-89
2024/04/08 00:40:15;;;;;;;0.50;0.50;;;;;;;17.37;47.31;96311.34;29395;211;63009;-90
2024/04/08 00:40:46;;;;;;;0.40;0.40;;;;;;;17.38;47.17;96314.88;29395;224;63011;-90
2024/04/08 00:41:18;;;;;;;0.40;0.40;;;;;;;17.39;47.27;96306.31;29394;227;64030;-87
2024/04/08 00:41:49;;;;;;;0.40;0.40;;;;;;;17.31;47.11;96301.81;29395;212;63005;-89
2024/04/08 00:42:20;;;;;;;0.40;0.40;;;;;;;17.41;47.22;96316.94;29395;209;63015;-89
2024/04/08 00:42:53;;;;;;;0.40;0.40;;;;;;;17.43;47.21;96320.13;29394;227;64005;-88
2024/04/08 00:43:25;;;;;;;0.45;0.45;;;;;;;17.43;47.20;96312.69;29395;214;63009;-90
2024/04/08 00:43:56;;;;;;;0.40;0.40;;;;;;;17.43;47.29;96315.44;29394;250;64009;-89
2024/04/08 00:44:29;;;;;;;0.40;0.40;;;;;;;17.45;47.43;96326.06;29395;249;63009;-88
2024/04/08 00:45:01;;;;;;;0.40;0.40;;;;;;;17.46;47.67;96321.38;29395;210;63005;-89
2024/04/08 00:45:36;;;;;;;0.40;0.40;;;;;;;17.45;47.37;96325.25;29395;221;63009;-88
2024/04/08 00:46:20;;;;;;;0.40;0.40;;;;;;;17.45;47.66;96325.25;29395;196;63004;-87
2024/04/08 00:46:55;;;;;;;0.43;0.43;;;;;;;17.44;47.65;96329.94;29395;235;63009;-88
2024/04/08 00:47:26;;;;;;;0.40;0.40;;;;;;;17.43;47.82;96329.16;29395;202;63014;-88
2024/04/08 00:47:59;;;;;;;0.40;0.40;;;;;;;17.41;47.72;96325.97;29395;237;63009;-88
2024/04/08 00:48:32;;;;;;;0.40;0.40;;;;;;;17.41;47.63;96325.97;29394;239;64008;-88
2024/04/08 00:49:05;;;;;;;0.40;0.40;;;;;;;17.33;47.93;96323.38;29395;237;63008;-88
2024/04/08 00:49:40;;;;;;;0.40;0.40;;;;;;;17.40;47.91;96335.31;29394;221;64009;-88
2024/04/08 00:50:12;;;;;;;0.40;0.40;;;;;;;17.39;47.97;96333.72;29395;237;63012;-89
2024/04/08 00:50:49;;;;;;;0.40;0.40;;;;;;;17.38;48.28;96331.34;29395;250;63005;-89
2024/04/08 00:51:24;;;;;;;0.40;0.40;;;;;;;17.35;48.13;96338.31;29395;226;63009;-90
2024/04/08 00:51:57;;;;;;;0.40;0.40;;;;;;;17.37;48.13;96337.97;29395;197;63009;-89
2024/04/08 00:52:28;;;;;;;0.40;0.40;;;;;;;17.36;48.39;96339.91;29395;247;63009;-89
2024/04/08 00:52:59;;;;;;;0.40;0.40;;;;;;;17.35;48.52;96343.81;29395;227;63005;-89
2024/04/08 00:53:31;;;;;;;0.40;0.40;;;;;;;17.34;48.23;96344.16;29395;281;63009;-89
2024/04/08 00:54:02;;;;;;;0.40;0.40;;;;;;;17.33;48.36;96348.84;29394;212;64009;-87
2024/04/08 00:54:34;;;;;;;0.40;0.40;;;;;;;17.32;48.63;96339.03;29394;202;64013;-88
2024/04/08 00:55:06;;;;;;;0.40;0.40;;;;;;;17.32;48.83;96338.25;29395;204;63000;-89
2024/04/08 00:55:38;;;;;;;0.40;0.40;;;;;;;17.31;48.75;96334.72;29395;206;63009;-89
2024/04/08 00:56:11;;;;;;;0.40;0.40;;;;;;;17.30;48.75;96335.84;29395;209;63004;-89
2024/04/08 00:56:44;;;;;;;0.40;0.40;;;;;;;17.31;48.55;96333.91;29395;272;63009;-88
2024/04/08 00:57:16;;;;;;;0.40;0.40;;;;;;;17.30;48.72;96333.13;29395;249;63009;-89
2024/04/08 00:57:50;;;;;;;0.40;0.40;;;;;;;17.30;48.69;96330.38;29394;280;64014;-89
2024/04/08 00:58:21;;;;;;;0.40;0.40;;;;;;;17.30;48.82;96318.59;29395;232;63005;-88
2024/04/08 00:58:53;;;;;;;0.40;0.40;;;;;;;17.30;48.77;96329.56;29395;217;63009;-89
2024/04/08 00:59:30;;;;;;;0.40;0.40;;;;;;;17.30;48.82;96329.56;29395;198;63005;-88
2024/04/08 01:00:12;;;;;;;0.40;0.40;;;;;;;17.29;48.80;96328.78;29395;223;63009;-87
2024/04/08 01:00:54;;;;;;;0.40;0.40;;;;;;;17.29;48.96;96317.81;29395;228;63005;-89
2024/04/08 01:01:32;;;;;;;;;;;;;;;17.28;48.93;96313.47;29996;983;6004;-89
2024/04/08 01:02:17;;;;;;;0.40;0.40;;;;;;;17.29;48.72;96312.31;29400;205;63009;-89
2024/04/08 01:02:50;;;;;;;0.40;0.40;;;;;;;17.30;48.39;96313.13;29394;230;64009;-90
2024/04/08 01:03:28;;;;;;;0.40;0.40;;;;;;;17.24;48.40;96300.81;29395;196;63011;-90
2024/04/08 01:03:59;;;;;;;0.40;0.40;;;;;;;17.30;48.33;96311.19;29395;226;63004;-89
2024/04/08 01:04:40;;;;;;;0.50;0.50;;;;;;;17.24;48.88;96304.34;29395;225;63009;-89
2024/04/08 01:05:14;;;;;;;0.47;0.47;;;;;;;17.32;48.78;96302.59;29417;214;63005;-89
2024/04/08 01:05:52;;;;;;;0.43;0.43;;;;;;;17.32;48.74;96317.09;29395;240;63009;-88
2024/04/08 01:06:23;;;;;;;0.40;0.40;;;;;;;17.32;48.68;96308.88;29395;202;63005;-88
2024/04/08 01:06:54;;;;;;;0.40;0.40;;;;;;;17.34;48.73;96314.78;29395;344;63009;-84
2024/04/08 01:07:25;;;;;;;0.40;0.40;;;;;;;17.33;48.62;96315.94;29395;266;63005;-91
2024/04/08 01:07:59;;;;;;;0.40;0.40;;;;;;;17.33;48.98;96315.94;29394;241;64013;-90
2024/04/08 01:08:32;;;;;;;0.40;0.40;;;;;;;17.33;49.08;96318.69;29395;222;63004;-89
2024/04/08 01:09:05;;;;;;;0.40;0.40;;;;;;;17.32;49.15;96319.84;29395;203;63009;-88
2024/04/08 01:09:36;;;;;;;0.40;0.40;;;;;;;17.32;49.34;96322.59;29395;216;63004;-89
2024/04/08 01:10:09;;;;;;;0.40;0.40;;;;;;;17.32;49.00;96319.84;29395;199;63009;-90
2024/04/08 01:10:41;;;;;;;0.40;0.40;;;;;;;17.32;49.14;96328.09;29395;197;63004;-91
2024/04/08 01:11:12;;;;;;;0.40;0.40;;;;;;;17.32;48.99;96321.78;29395;206;63008;-89
2024/04/08 01:11:44;;;;;;;0.40;0.40;;;;;;;17.33;48.79;96328.84;29395;197;63005;-89
2024/04/08 01:12:15;;;;;;;0.40;0.40;;;;;;;17.33;48.95;96328.84;29395;223;63009;-88
2024/04/08 01:12:47;;;;;;;0.40;0.40;;;;;;;17.32;48.71;96322.59;29395;222;63005;-89
2024/04/08 01:13:18;;;;;;;0.40;0.40;;;;;;;17.33;48.63;96323.38;29394;275;64014;-87
2024/04/08 01:13:50;;;;;;;0.40;0.40;;;;;;;17.32;48.25;96321.78;29395;303;63007;-88
2024/04/08 01:14:23;;;;;;;0.40;0.40;;;;;;;17.31;48.71;96318.25;29395;198;63009;-89
2024/04/08 01:14:54;;;;;;;0.40;0.40;;;;;;;17.31;48.48;96326.47;29395;257;63005;-88
2024/04/08 01:15:26;;;;;;;0.40;0.40;;;;;;;17.30;48.46;96319.41;29395;198;63018;-88
2024/04/08 01:15:59;;;;;;;0.40;0.40;;;;;;;17.30;48.21;96319.41;29395;222;63004;-89
2024/04/08 01:16:30;;;;;;;0.40;0.40;;;;;;;17.23;48.36;96313.72;29395;216;63009;-88
2024/04/08 01:17:02;;;;;;;0.40;0.40;;;;;;;17.30;48.16;96319.41;29395;236;63004;-89
2024/04/08 01:17:33;;;;;;;0.40;0.40;;;;;;;17.29;48.31;96317.81;29394;211;64009;-87
2024/04/08 01:18:05;;;;;;;0.40;0.40;;;;;;;17.22;48.31;96311.31;29395;205;63004;-87
2024/04/08 01:18:37;;;;;;;0.40;0.40;;;;;;;17.29;48.40;96319.75;29394;196;64013;-89
2024/04/08 01:19:11;;;;;;;0.40;0.40;;;;;;;17.28;48.13;96310.72;29395;250;63004;-86
2024/04/08 01:19:44;;;;;;;0.40;0.40;;;;;;;17.28;48.25;96315.41;29395;217;63009;-88
2024/04/08 01:20:16;;;;;;;0.40;0.40;;;;;;;17.27;48.32;96311.87;29395;313;63005;-90
2024/04/08 01:20:47;;;;;;;0.40;0.40;;;;;;;17.27;48.55;96317.34;29395;288;63005;-88
2024/04/08 01:21:19;;;;;;;0.30;0.30;;;;;;;17.27;48.52;96316.56;29395;253;63005;-89
2024/04/08 01:21:51;;;;;;;0.40;0.40;;;;;;;17.26;48.17;96314.97;29395;203;63009;-89
2024/04/08 01:22:22;;;;;;;0.40;0.40;;;;;;;17.25;48.33;96311.44;29395;200;63005;-88
2024/04/08 01:22:56;;;;;;;0.40;0.40;;;;;;;17.25;48.30;96308.69;29395;262;63024;-88
2024/04/08 01:23:40;;;;;;;0.40;0.40;;;;;;;17.24;48.53;96304.34;29395;217;63004;-89
2024/04/08 01:24:13;;;;;;;0.50;0.50;;;;;;;17.24;48.51;96307.09;29394;339;64013;-89
2024/04/08 01:24:45;;;;;;;0.40;0.40;;;;;;;17.25;48.19;96305.94;29395;228;63004;-90
2024/04/08 01:25:16;;;;;;;0.40;0.40;;;;;;;17.25;48.17;96308.69;29395;204;63008;-88
2024/04/08 01:25:47;;;;;;;0.40;0.40;;;;;;;17.25;48.16;96300.47;29395;202;63004;-89
2024/04/08 01:26:21;;;;;;;0.40;0.40;;;;;;;17.26;48.00;96306.75;29395;233;63009;-89
2024/04/08 01:26:54;;;;;;;0.40;0.40;;;;;;;17.26;48.06;96302.06;29395;207;63005;-88
2024/04/08 01:27:28;;;;;;;0.40;0.40;;;;;;;17.26;48.06;96298.50;29395;247;63009;-90
2024/04/08 01:28:00;;;;;;;0.40;0.40;;;;;;;17.26;48.21;96296.56;29395;197;63005;-89
2024/04/08 01:28:32;;;;;;;0.40;0.40;;;;;;;17.26;48.09;96291.09;29395;216;63009;-88
2024/04/08 01:29:03;;;;;;;0.40;0.40;;;;;;;17.26;47.97;96293.81;29395;318;63005;-90
2024/04/08 01:29:35;;;;;;;0.40;0.40;;;;;;;17.27;48.08;96298.16;29394;197;64013;-89
2024/04/08 01:30:08;;;;;;;0.40;0.40;;;;;;;17.28;47.91;96297.03;29395;233;63005;-89
2024/04/08 01:30:42;;;;;;;0.40;0.40;;;;;;;17.29;47.99;96295.06;29395;215;63009;-89
2024/04/08 01:31:16;;;;;;;0.40;0.40;;;;;;;17.30;47.97;96291.97;29395;202;63004;-88
2024/04/08 01:31:48;;;;;;;0.40;0.40;;;;;;;17.29;48.21;96290.38;29395;206;63009;-90
2024/04/08 01:32:20;;;;;;;0.40;0.40;;;;;;;17.30;47.92;96281.00;29395;232;63004;-89
2024/04/08 01:32:51;;;;;;;0.40;0.40;;;;;;;17.31;48.00;96292.78;29395;233;63008;-90
2024/04/08 01:33:22;;;;;;;0.40;0.40;;;;;;;17.29;48.00;96284.91;29395;237;63010;-89
2024/04/08 01:33:54;;;;;;;0.40;0.40;;;;;;;17.28;47.83;96286.06;29395;217;63009;-89
2024/04/08 01:34:25;;;;;;;0.40;0.40;;;;;;;17.28;47.95;96294.28;29395;203;63005;-88
2024/04/08 01:34:56;;;;;;;0.40;0.40;;;;;;;17.27;48.33;96281.72;29394;238;64014;-90
2024/04/08 01:35:27;;;;;;;0.40;0.40;;;;;;;17.27;48.23;96291.88;29395;216;63005;-90
2024/04/08 01:36:04;;;;;;;0.40;0.40;;;;;;;17.26;48.19;96288.34;29395;221;63009;-88
2024/04/08 01:36:35;;;;;;;0.40;0.40;;;;;;;17.24;48.12;96287.91;29395;293;63005;-88
2024/04/08 01:37:06;;;;;;;0.40;0.40;;;;;;;17.23;48.46;96286.31;29395;233;63009;-91
2024/04/08 01:37:38;;;;;;;0.40;0.40;;;;;;;17.21;48.70;96288.59;29395;197;63005;-89
2024/04/08 01:38:09;;;;;;;0.50;0.50;;;;;;;17.20;48.80;96292.47;29395;202;63009;-90
2024/04/08 01:38:40;;;;;;;0.40;0.40;;;;;;;17.20;48.83;96287.00;29395;204;63004;-90
2024/04/08 01:39:11;;;;;;;0.40;0.40;;;;;;;17.18;49.26;96294.78;29395;220;63009;-89
2024/04/08 01:39:42;;;;;;;0.50;0.50;;;;;;;17.16;49.04;96286.09;29395;202;63004;-91
2024/04/08 01:40:14;;;;;;;0.47;0.47;;;;;;;17.15;49.62;96286.44;29394;200;64013;-90
2024/04/08 01:40:50;;;;;;;0.47;0.47;;;;;;;17.14;49.26;96282.91;29395;198;63004;-90
2024/04/08 01:41:21;;;;;;;0.45;0.45;;;;;;;17.13;49.36;96292.28;29395;200;63009;-90
2024/04/08 01:41:52;;;;;;;0.50;0.50;;;;;;;17.14;49.47;96288.38;29395;390;63005;-89
2024/04/08 01:42:23;;;;;;;0.50;0.50;;;;;;;17.14;49.26;96288.38;29395;222;63009;-89
2024/04/08 01:42:55;;;;;;;0.40;0.40;;;;;;;17.14;49.29;96290.34;29395;226;63005;-88
2024/04/08 01:43:26;;;;;;;0.50;0.50;;;;;;;17.13;49.59;96286.78;29395;227;63009;-90
2024/04/08 01:43:57;;;;;;;0.50;0.50;;;;;;;17.13;49.21;96286.78;29395;212;63007;-90
2024/04/08 01:44:28;;;;;;;0.40;0.40;;;;;;;17.13;49.27;96283.25;29395;222;63009;-88
2024/04/08 01:44:59;;;;;;;0.40;0.40;;;;;;;17.14;49.14;96285.66;29395;213;63005;-90
2024/04/08 01:45:31;;;;;;;0.47;0.47;;;;;;;17.15;49.03;96284.50;29394;227;64013;-88
2024/04/08 01:46:03;;;;;;;0.40;0.40;;;;;;;17.17;48.90;96281.41;29395;224;63004;-90
2024/04/08 01:46:38;;;;;;;0.43;0.43;;;;;;;17.16;48.90;96282.56;29395;208;63009;-90
2024/04/08 01:47:09;;;;;;;0.40;0.40;;;;;;;17.16;48.75;96285.31;29394;247;64004;-90
2024/04/08 01:47:40;;;;;;;0.40;0.40;;;;;;;17.15;48.86;96283.72;29394;202;64009;-89
2024/04/08 01:48:12;;;;;;;0.40;0.40;;;;;;;17.05;48.68;96269.34;29395;223;63004;-90
2024/04/08 01:48:43;;;;;;;0.40;0.40;;;;;;;17.12;49.01;96285.19;29395;219;63009;-89
2024/04/08 01:49:15;;;;;;;0.40;0.40;;;;;;;17.11;49.26;96286.34;29395;240;63005;-90
2024/04/08 01:49:46;;;;;;;0.40;0.40;;;;;;;17.09;49.27;96285.91;29395;197;63009;-91
2024/04/08 01:50:17;;;;;;;0.40;0.40;;;;;;;17.06;49.12;96284.66;29395;199;63005;-89
2024/04/08 01:50:49;;;;;;;0.40;0.40;;;;;;;17.05;49.23;96287.75;29394;309;64013;-89
2024/04/08 01:51:20;;;;;;;0.40;0.40;;;;;;;17.02;49.21;96289.22;29395;197;63005;-90
2024/04/08 01:51:51;;;;;;;0.40;0.40;;;;;;;17.01;49.27;96295.84;29395;298;63025;-88
2024/04/08 01:52:22;;;;;;;0.40;0.40;;;;;;;17.00;49.44;96293.47;29395;254;63005;-89
2024/04/08 01:52:54;;;;;;;0.40;0.40;;;;;;;16.97;49.46;96294.97;29395;202;63008;-88
2024/04/08 01:53:25;;;;;;;0.40;0.40;;;;;;;16.96;49.89;96298.06;29395;207;63004;-89
2024/04/08 01:53:56;;;;;;;0.40;0.40;;;;;;;16.95;49.97;96296.47;29395;231;63009;-89
2024/04/08 01:54:27;;;;;;;0.40;0.40;;;;;;;16.92;50.14;96297.97;29395;263;63004;-88
2024/04/08 01:54:59;;;;;;;0.40;0.40;;;;;;;16.80;51.81;96288.97;29395;222;63009;-88
2024/04/08 01:55:30;;;;;;;0.40;0.40;;;;;;;16.85;52.29;96302.44;29395;225;63004;-90
2024/04/08 01:56:01;;;;;;;0.40;0.40;;;;;;;16.81;51.25;96298.78;29394;215;64013;-90
2024/04/08 01:56:33;;;;;;;0.40;0.40;;;;;;;16.80;50.88;96299.94;29395;223;63005;-89
2024/04/08 01:57:05;;;;;;;0.40;0.40;;;;;;;16.79;50.95;96292.88;29395;267;63020;-89
2024/04/08 01:57:36;;;;;;;0.40;0.40;;;;;;;16.80;51.09;96294.47;29395;222;63005;-90
2024/04/08 01:58:07;;;;;;;0.40;0.40;;;;;;;16.77;50.83;96285.00;29395;197;63009;-88
2024/04/08 01:58:39;;;;;;;0.40;0.40;;;;;;;16.78;50.98;96286.59;29395;202;63005;-88
2024/04/08 01:59:10;;;;;;;0.40;0.40;;;;;;;16.78;50.85;96286.59;29395;213;63009;-88
2024/04/08 01:59:41;;;;;;;0.47;0.47;;;;;;;16.77;50.84;96287.72;29395;204;63005;-89
2024/04/08 02:00:13;;;;;;;0.40;0.40;;;;;;;16.79;50.80;96292.88;29395;237;63009;-90
2024/04/08 02:00:45;;;;;;;0.40;0.40;;;;;;;16.77;50.75;96286.94;29395;246;63004;-90
2024/04/08 02:01:16;;;;;;;0.40;0.40;;;;;;;16.79;50.80;96287.38;29394;235;64013;-89
2024/04/08 02:01:47;;;;;;;0.43;0.43;;;;;;;16.78;50.72;96285.78;29395;291;63004;-88
2024/04/08 02:02:18;;;;;;;0.43;0.43;;;;;;;16.78;51.01;96286.59;29395;216;63009;-91
2024/04/08 02:02:50;;;;;;;0.40;0.40;;;;;;;16.82;50.78;96281.22;29395;219;63004;-90
2024/04/08 02:03:21;;;;;;;0.40;0.40;;;;;;;16.83;50.54;96280.06;29395;217;63008;-90
2024/04/08 02:03:52;;;;;;;0.40;0.40;;;;;;;16.84;50.63;96278.91;29395;202;63005;-90
2024/04/08 02:04:24;;;;;;;0.40;0.40;;;;;;;16.82;50.59;96276.53;29395;202;63009;-89
2024/04/08 02:04:55;;;;;;;0.40;0.40;;;;;;;16.82;50.39;96275.72;29395;214;63005;-90
2024/04/08 02:05:26;;;;;;;0.40;0.40;;;;;;;16.82;50.82;96270.25;29395;250;63009;-90
2024/04/08 02:05:57;;;;;;;0.40;0.40;;;;;;;16.82;50.68;96273.78;29394;207;64009;-89
2024/04/08 02:06:29;;;;;;;0.40;0.40;;;;;;;16.82;50.78;96275.72;29395;238;63009;-89
2024/04/08 02:07:00;;;;;;;0.40;0.40;;;;;;;16.82;50.38;96270.25;29395;229;63005;-89
2024/04/08 02:07:31;;;;;;;0.40;0.40;;;;;;;16.81;50.65;96268.66;29395;204;63009;-90
2024/04/08 02:08:04;;;;;;;0.50;0.50;;;;;;;16.72;50.35;96260.56;29395;229;63004;-89
2024/04/08 02:08:35;;;;;;;0.40;0.40;;;;;;;16.83;50.30;96272.66;29394;222;64013;-91
2024/04/08 02:09:08;;;;;;;0.50;0.50;;;;;;;16.85;49.88;96270.34;29395;222;63004;-88
2024/04/08 02:09:39;;;;;;;0.40;0.40;;;;;;;16.86;49.76;96271.16;29395;219;63009;-89
2024/04/08 02:10:11;;;;;;;0.40;0.40;;;;;;;16.79;49.65;96259.97;29395;214;63004;-90
2024/04/08 02:10:49;;;;;;;0.40;0.40;;;;;;;16.86;49.70;96271.16;29395;202;63008;-90
2024/04/08 02:11:20;;;;;;;0.40;0.40;;;;;;;16.86;49.69;96271.16;29395;214;63005;-90
2024/04/08 02:11:52;;;;;;;0.40;0.40;;;;;;;16.86;49.76;96268.41;29395;211;63009;-89
2024/04/08 02:12:26;;;;;;;0.40;0.40;;;;;;;16.86;49.82;96282.13;29394;216;64005;-90
2024/04/08 02:12:57;;;;;;;0.40;0.40;;;;;;;16.86;49.97;96279.38;29395;206;63009;-90
2024/04/08 02:13:29;;;;;;;0.40;0.40;;;;;;;16.86;51.05;96287.59;29395;364;63005;-90
2024/04/08 02:14:00;;;;;;;0.40;0.40;;;;;;;16.83;50.64;96288.28;29394;272;64009;-88
2024/04/08 02:14:34;;;;;;;0.50;0.50;;;;;;;16.81;50.88;96285.09;29395;220;63005;-89
2024/04/08 02:15:06;;;;;;;0.45;0.45;;;;;;;16.79;50.90;96288.19;29394;197;64025;-88
2024/04/08 02:15:38;;;;;;;0.40;0.40;;;;;;;16.78;50.89;96288.53;29395;202;63004;-88
2024/04/08 02:16:10;;;;;;;0.50;0.50;;;;;;;16.75;51.18;96288.06;29395;326;63009;-89
2024/04/08 02:16:41;;;;;;;0.40;0.40;;;;;;;16.64;51.33;96276.00;29394;227;64009;-89
2024/04/08 02:17:15;;;;;;;0.50;0.50;;;;;;;16.73;51.42;96292.31;29396;196;63009;-89
2024/04/08 02:17:46;;;;;;;0.40;0.40;;;;;;;16.70;51.23;96291.06;29396;256;63004;-88
2024/04/08 02:18:18;;;;;;;0.50;0.50;;;;;;;16.68;51.46;96293.34;29396;232;63008;-88
2024/04/08 02:18:51;;;;;;;0.40;0.40;;;;;;;16.67;51.29;96289.00;29396;196;63004;-89
2024/04/08 02:19:25;;;;;;;0.50;0.50;;;;;;;16.65;51.46;96288.56;29396;217;63005;-88
2024/04/08 02:19:57;;;;;;;0.45;0.45;;;;;;;16.64;51.50;96286.94;29396;235;63005;-89
2024/04/08 02:20:28;;;;;;;0.40;0.40;;;;;;;16.62;51.73;96291.97;29396;293;63009;-89
2024/04/08 02:21:00;;;;;;;0.40;0.40;;;;;;;16.62;51.92;96294.72;29396;244;63005;-88
2024/04/08 02:21:31;;;;;;;0.40;0.40;;;;;;;16.61;52.07;96297.81;29395;204;64013;-88
2024/04/08 02:22:03;;;;;;;0.40;0.40;;;;;;;16.59;52.55;96295.41;29395;306;64009;-89
2024/04/08 02:22:35;;;;;;;0.50;0.50;;;;;;;16.56;52.60;96298.84;29396;221;63020;-89
2024/04/08 02:23:07;;;;;;;0.50;0.50;;;;;;;16.55;52.47;96294.50;29396;240;63004;-88
2024/04/08 02:23:38;;;;;;;0.50;0.50;;;;;;;16.53;52.36;96296.78;29396;206;63009;-88
2024/04/08 02:24:09;;;;;;;0.40;0.40;;;;;;;16.44;52.52;96290.63;29396;236;63004;-89
2024/04/08 02:24:41;;;;;;;0.40;0.40;;;;;;;16.52;53.01;96297.94;29396;203;63009;-88
2024/04/08 02:25:13;;;;;;;0.40;0.40;;;;;;;16.52;52.58;96306.13;29396;203;63004;-88
2024/04/08 02:25:48;;;;;;;0.40;0.40;;;;;;;16.50;52.72;96302.94;29396;227;63008;-89
2024/04/08 02:26:19;;;;;;;0.40;0.40;;;;;;;16.50;52.53;96311.16;29396;208;63004;-88
2024/04/08 02:26:51;;;;;;;0.40;0.40;;;;;;;16.50;52.81;96308.44;29396;208;63009;-89
2024/04/08 02:27:22;;;;;;;0.40;0.40;;;;;;;16.39;52.82;96296.34;29395;218;64009;-88
2024/04/08 02:27:54;;;;;;;0.47;0.47;;;;;;;16.48;52.52;96310.72;29396;198;63009;-86
2024/04/08 02:28:25;;;;;;;0.43;0.43;;;;;;;16.47;52.65;96309.09;29396;221;63005;-87
2024/04/08 02:28:59;;;;;;;0.40;0.40;;;;;;;16.47;52.93;96309.09;29396;231;63009;-86
2024/04/08 02:29:36;;;;;;;0.50;0.50;;;;;;;16.47;52.95;96311.84;29396;321;63005;-89
2024/04/08 02:30:08;;;;;;;0.50;0.50;;;;;;;16.48;52.88;96315.38;29396;259;63009;-87
2024/04/08 02:30:39;;;;;;;0.45;0.45;;;;;;;16.47;53.03;96320.06;29396;341;63004;-89
2024/04/08 02:31:11;;;;;;;0.50;0.50;;;;;;;16.47;52.75;96324.75;29396;237;63009;-87
2024/04/08 02:31:43;;;;;;;0.50;0.50;;;;;;;16.46;53.65;96328.63;29395;261;64001;-89
2024/04/08 02:32:14;;;;;;;0.50;0.50;;;;;;;16.43;53.42;96327.37;29396;223;63009;-90
2024/04/08 02:32:46;;;;;;;0.50;0.50;;;;;;;16.42;52.94;96323.03;29396;344;63004;-88
2024/04/08 02:33:17;;;;;;;0.40;0.40;;;;;;;16.40;53.33;96334.31;29396;199;63009;-89
2024/04/08 02:33:48;;;;;;;0.40;0.40;;;;;;;16.39;53.30;96324.50;29396;217;63005;-87